sensor_id;sensor_type;location;lat;lon;timestamp;P1;durP1;ratioP1;P2;durP2;ratioP2
65018;SDS011;66069;51.164;-114.452;2023-04-03T00:05:20;1.25;;;0.20;;
65018;SDS011;66069;51.164;-114.452;2023-04-03T00:07:46;0.73;;;0.20;;
65018;SDS011;66069;51.164;-114.452;2023-04-03T00:10:12;0.32;;;0.10;;
65018;SDS011;66069;51.164;-114.452;2023-04-03T00:12:39;0.20;;;0.20;;
65018;SDS011;66069;51.164;-114.452;2023-04-03T00:15:05;0.63;;;0.30;;
65018;SDS011;66069;51.164;-114.452;2023-04-03T00:17:31;0.45;;;0.20;;
65018;SDS011;66069;51.164;-114.452;2023-04-03T00:19:57;1.42;;;0.22;;
65018;SDS011;66069;51.164;-114.452;2023-04-03T00:22:28;1.13;;;0.32;;
65018;SDS011;66069;51.164;-114.452;2023-04-03T00:25:00;2.78;;;0.80;;
65018;SDS011;66069;51.164;-114.452;2023-04-03T00:27:26;2.17;;;0.80;;
65018;SDS011;66069;51.164;-114.452;2023-04-03T00:29:52;2.72;;;0.98;;
65018;SDS011;66069;51.164;-114.452;2023-04-03T00:32:18;2.90;;;1.00;;
65018;SDS011;66069;51.164;-114.452;2023-04-03T00:34:47;3.78;;;1.10;;
65018;SDS011;66069;51.164;-114.452;2023-04-03T00:37:13;2.58;;;1.00;;
65018;SDS011;66069;51.164;-114.452;2023-04-03T00:39:39;3.85;;;1.75;;
65018;SDS011;66069;51.164;-114.452;2023-04-03T00:42:04;2.20;;;1.17;;
65018;SDS011;66069;51.164;-114.452;2023-04-03T00:47:00;4.00;;;1.52;;
65018;SDS011;66069;51.164;-114.452;2023-04-03T00:49:26;5.03;;;1.50;;
65018;SDS011;66069;51.164;-114.452;2023-04-03T00:51:52;7.20;;;1.65;;
65018;SDS011;66069;51.164;-114.452;2023-04-03T00:54:18;6.03;;;2.03;;
65018;SDS011;66069;51.164;-114.452;2023-04-03T00:56:44;4.85;;;2.08;;
65018;SDS011;66069;51.164;-114.452;2023-04-03T00:59:15;6.03;;;1.80;;
65018;SDS011;66069;51.164;-114.452;2023-04-03T01:01:42;4.78;;;1.67;;
65018;SDS011;66069;51.164;-114.452;2023-04-03T01:04:28;6.47;;;1.88;;
65018;SDS011;66069;51.164;-114.452;2023-04-03T01:06:55;5.78;;;2.10;;
65018;SDS011;66069;51.164;-114.452;2023-04-03T01:09:21;5.85;;;2.30;;
65018;SDS011;66069;51.164;-114.452;2023-04-03T01:11:47;5.97;;;2.47;;
65018;SDS011;66069;51.164;-114.452;2023-04-03T01:14:13;5.65;;;2.05;;
65018;SDS011;66069;51.164;-114.452;2023-04-03T01:16:39;8.27;;;2.80;;
65018;SDS011;66069;51.164;-114.452;2023-04-03T01:19:10;6.30;;;2.53;;
65018;SDS011;66069;51.164;-114.452;2023-04-03T01:24:21;7.80;;;2.30;;
65018;SDS011;66069;51.164;-114.452;2023-04-03T01:26:48;6.03;;;2.13;;
65018;SDS011;66069;51.164;-114.452;2023-04-03T01:29:15;6.93;;;2.45;;
65018;SDS011;66069;51.164;-114.452;2023-04-03T01:31:44;8.02;;;3.55;;
65018;SDS011;66069;51.164;-114.452;2023-04-03T01:34:10;6.75;;;2.80;;
65018;SDS011;66069;51.164;-114.452;2023-04-03T01:36:36;6.03;;;2.25;;
65018;SDS011;66069;51.164;-114.452;2023-04-03T01:39:02;7.50;;;3.17;;
65018;SDS011;66069;51.164;-114.452;2023-04-03T01:41:28;9.73;;;3.20;;
65018;SDS011;66069;51.164;-114.452;2023-04-03T01:43:54;10.48;;;2.92;;
65018;SDS011;66069;51.164;-114.452;2023-04-03T01:46:20;7.30;;;2.50;;
65018;SDS011;66069;51.164;-114.452;2023-04-03T01:48:46;6.47;;;2.60;;
65018;SDS011;66069;51.164;-114.452;2023-04-03T01:51:12;9.27;;;3.15;;
65018;SDS011;66069;51.164;-114.452;2023-04-03T01:53:38;8.00;;;3.38;;
65018;SDS011;66069;51.164;-114.452;2023-04-03T01:56:05;7.63;;;3.03;;
65018;SDS011;66069;51.164;-114.452;2023-04-03T01:58:31;9.07;;;3.17;;
65018;SDS011;66069;51.164;-114.452;2023-04-03T02:00:56;8.13;;;3.40;;
65018;SDS011;66069;51.164;-114.452;2023-04-03T02:03:22;8.82;;;3.65;;
65018;SDS011;66069;51.164;-114.452;2023-04-03T02:05:49;8.65;;;3.65;;
65018;SDS011;66069;51.164;-114.452;2023-04-03T02:08:15;8.93;;;3.25;;
65018;SDS011;66069;51.164;-114.452;2023-04-03T02:10:43;9.02;;;3.28;;
65018;SDS011;66069;51.164;-114.452;2023-04-03T02:13:10;7.90;;;3.38;;
65018;SDS011;66069;51.164;-114.452;2023-04-03T02:15:39;9.05;;;3.42;;
65018;SDS011;66069;51.164;-114.452;2023-04-03T02:18:05;11.13;;;3.38;;
65018;SDS011;66069;51.164;-114.452;2023-04-03T02:20:31;7.80;;;3.25;;
65018;SDS011;66069;51.164;-114.452;2023-04-03T02:22:57;9.32;;;3.42;;
65018;SDS011;66069;51.164;-114.452;2023-04-03T02:25:23;11.38;;;3.53;;
65018;SDS011;66069;51.164;-114.452;2023-04-03T02:27:49;9.70;;;3.65;;
65018;SDS011;66069;51.164;-114.452;2023-04-03T02:30:15;9.32;;;3.60;;
65018;SDS011;66069;51.164;-114.452;2023-04-03T02:32:41;8.63;;;3.40;;
65018;SDS011;66069;51.164;-114.452;2023-04-03T02:35:08;8.45;;;3.65;;
65018;SDS011;66069;51.164;-114.452;2023-04-03T02:37:34;8.85;;;3.50;;
65018;SDS011;66069;51.164;-114.452;2023-04-03T02:40:00;9.02;;;3.50;;
65018;SDS011;66069;51.164;-114.452;2023-04-03T02:42:26;8.15;;;3.42;;
65018;SDS011;66069;51.164;-114.452;2023-04-03T02:44:52;6.57;;;3.00;;
65018;SDS011;66069;51.164;-114.452;2023-04-03T02:47:17;7.38;;;3.05;;
65018;SDS011;66069;51.164;-114.452;2023-04-03T02:49:43;9.55;;;3.63;;
65018;SDS011;66069;51.164;-114.452;2023-04-03T02:52:11;8.88;;;3.33;;
65018;SDS011;66069;51.164;-114.452;2023-04-03T02:54:37;5.80;;;3.00;;
65018;SDS011;66069;51.164;-114.452;2023-04-03T02:57:03;9.68;;;3.58;;
65018;SDS011;66069;51.164;-114.452;2023-04-03T02:59:29;6.97;;;2.80;;
65018;SDS011;66069;51.164;-114.452;2023-04-03T03:01:55;10.68;;;3.28;;
65018;SDS011;66069;51.164;-114.452;2023-04-03T03:04:21;7.22;;;2.85;;
65018;SDS011;66069;51.164;-114.452;2023-04-03T03:06:47;7.63;;;2.90;;
65018;SDS011;66069;51.164;-114.452;2023-04-03T03:09:13;8.02;;;2.80;;
65018;SDS011;66069;51.164;-114.452;2023-04-03T03:11:39;8.15;;;2.85;;
65018;SDS011;66069;51.164;-114.452;2023-04-03T03:14:05;8.27;;;3.83;;
65018;SDS011;66069;51.164;-114.452;2023-04-03T03:16:31;7.50;;;2.80;;
65018;SDS011;66069;51.164;-114.452;2023-04-03T03:18:57;6.72;;;2.97;;
65018;SDS011;66069;51.164;-114.452;2023-04-03T03:21:23;6.15;;;2.92;;
65018;SDS011;66069;51.164;-114.452;2023-04-03T03:23:49;8.02;;;2.65;;
65018;SDS011;66069;51.164;-114.452;2023-04-03T03:26:15;6.30;;;2.63;;
65018;SDS011;66069;51.164;-114.452;2023-04-03T03:28:41;7.80;;;3.55;;
65018;SDS011;66069;51.164;-114.452;2023-04-03T03:31:07;5.88;;;2.72;;
65018;SDS011;66069;51.164;-114.452;2023-04-03T03:33:33;8.00;;;2.30;;
65018;SDS011;66069;51.164;-114.452;2023-04-03T03:35:59;6.07;;;2.42;;
65018;SDS011;66069;51.164;-114.452;2023-04-03T03:38:25;5.28;;;2.40;;
65018;SDS011;66069;51.164;-114.452;2023-04-03T03:40:51;5.90;;;2.95;;
65018;SDS011;66069;51.164;-114.452;2023-04-03T03:43:17;7.07;;;2.53;;
65018;SDS011;66069;51.164;-114.452;2023-04-03T03:45:43;7.43;;;3.25;;
65018;SDS011;66069;51.164;-114.452;2023-04-03T03:48:09;6.15;;;2.60;;
65018;SDS011;66069;51.164;-114.452;2023-04-03T03:50:35;5.95;;;2.35;;
65018;SDS011;66069;51.164;-114.452;2023-04-03T03:53:01;7.82;;;2.65;;
65018;SDS011;66069;51.164;-114.452;2023-04-03T03:55:27;6.70;;;2.45;;
65018;SDS011;66069;51.164;-114.452;2023-04-03T03:57:53;5.20;;;2.08;;
65018;SDS011;66069;51.164;-114.452;2023-04-03T04:00:19;5.68;;;2.17;;
65018;SDS011;66069;51.164;-114.452;2023-04-03T04:02:45;6.50;;;2.38;;
65018;SDS011;66069;51.164;-114.452;2023-04-03T04:05:11;5.25;;;2.42;;
65018;SDS011;66069;51.164;-114.452;2023-04-03T04:07:37;6.00;;;2.72;;
65018;SDS011;66069;51.164;-114.452;2023-04-03T04:10:04;5.75;;;2.47;;
65018;SDS011;66069;51.164;-114.452;2023-04-03T04:12:30;5.95;;;2.42;;
65018;SDS011;66069;51.164;-114.452;2023-04-03T04:14:56;6.43;;;2.70;;
65018;SDS011;66069;51.164;-114.452;2023-04-03T04:17:22;7.18;;;2.28;;
65018;SDS011;66069;51.164;-114.452;2023-04-03T04:19:47;7.57;;;2.80;;
65018;SDS011;66069;51.164;-114.452;2023-04-03T04:22:13;6.45;;;2.30;;
65018;SDS011;66069;51.164;-114.452;2023-04-03T04:24:39;6.30;;;2.40;;
65018;SDS011;66069;51.164;-114.452;2023-04-03T04:27:05;5.32;;;2.00;;
65018;SDS011;66069;51.164;-114.452;2023-04-03T04:29:31;6.28;;;2.40;;
65018;SDS011;66069;51.164;-114.452;2023-04-03T04:32:01;5.00;;;2.28;;
65018;SDS011;66069;51.164;-114.452;2023-04-03T04:34:27;5.80;;;2.58;;
65018;SDS011;66069;51.164;-114.452;2023-04-03T04:36:53;6.13;;;2.20;;
65018;SDS011;66069;51.164;-114.452;2023-04-03T04:39:19;5.80;;;2.35;;
65018;SDS011;66069;51.164;-114.452;2023-04-03T04:41:45;4.65;;;2.22;;
65018;SDS011;66069;51.164;-114.452;2023-04-03T04:44:11;6.22;;;2.60;;
65018;SDS011;66069;51.164;-114.452;2023-04-03T04:46:37;6.60;;;2.65;;
65018;SDS011;66069;51.164;-114.452;2023-04-03T04:49:03;5.43;;;2.03;;
65018;SDS011;66069;51.164;-114.452;2023-04-03T04:51:29;7.20;;;2.63;;
65018;SDS011;66069;51.164;-114.452;2023-04-03T04:53:55;7.15;;;2.40;;
65018;SDS011;66069;51.164;-114.452;2023-04-03T04:56:21;6.43;;;2.70;;
65018;SDS011;66069;51.164;-114.452;2023-04-03T04:58:47;4.57;;;2.17;;
65018;SDS011;66069;51.164;-114.452;2023-04-03T05:01:13;6.45;;;2.67;;
65018;SDS011;66069;51.164;-114.452;2023-04-03T05:03:38;6.05;;;2.20;;
65018;SDS011;66069;51.164;-114.452;2023-04-03T05:06:04;5.65;;;2.13;;
65018;SDS011;66069;51.164;-114.452;2023-04-03T05:08:30;4.75;;;2.22;;
65018;SDS011;66069;51.164;-114.452;2023-04-03T05:10:56;6.32;;;2.40;;
65018;SDS011;66069;51.164;-114.452;2023-04-03T05:13:22;5.28;;;2.50;;
65018;SDS011;66069;51.164;-114.452;2023-04-03T05:15:48;5.03;;;2.17;;
65018;SDS011;66069;51.164;-114.452;2023-04-03T05:18:14;6.05;;;2.53;;
65018;SDS011;66069;51.164;-114.452;2023-04-03T05:20:40;5.60;;;2.08;;
65018;SDS011;66069;51.164;-114.452;2023-04-03T05:23:06;5.55;;;2.00;;
65018;SDS011;66069;51.164;-114.452;2023-04-03T05:25:32;5.03;;;2.05;;
65018;SDS011;66069;51.164;-114.452;2023-04-03T05:27:58;6.45;;;2.50;;
65018;SDS011;66069;51.164;-114.452;2023-04-03T05:30:24;4.75;;;2.08;;
65018;SDS011;66069;51.164;-114.452;2023-04-03T05:32:50;6.38;;;2.28;;
65018;SDS011;66069;51.164;-114.452;2023-04-03T05:35:15;6.40;;;2.45;;
65018;SDS011;66069;51.164;-114.452;2023-04-03T05:37:41;5.78;;;1.90;;
65018;SDS011;66069;51.164;-114.452;2023-04-03T05:40:07;5.10;;;1.92;;
65018;SDS011;66069;51.164;-114.452;2023-04-03T05:42:34;3.95;;;1.73;;
65018;SDS011;66069;51.164;-114.452;2023-04-03T05:45:00;5.28;;;1.73;;
65018;SDS011;66069;51.164;-114.452;2023-04-03T05:47:26;6.35;;;2.20;;
65018;SDS011;66069;51.164;-114.452;2023-04-03T05:49:51;5.70;;;2.13;;
65018;SDS011;66069;51.164;-114.452;2023-04-03T05:52:20;4.78;;;1.88;;
65018;SDS011;66069;51.164;-114.452;2023-04-03T05:54:47;4.78;;;2.00;;
65018;SDS011;66069;51.164;-114.452;2023-04-03T05:57:14;4.95;;;2.08;;
65018;SDS011;66069;51.164;-114.452;2023-04-03T05:59:41;5.00;;;1.92;;
65018;SDS011;66069;51.164;-114.452;2023-04-03T06:02:09;5.43;;;1.98;;
65018;SDS011;66069;51.164;-114.452;2023-04-03T06:04:36;5.90;;;2.15;;
65018;SDS011;66069;51.164;-114.452;2023-04-03T06:07:02;4.72;;;2.13;;
65018;SDS011;66069;51.164;-114.452;2023-04-03T06:09:28;4.55;;;1.92;;
65018;SDS011;66069;51.164;-114.452;2023-04-03T06:11:54;5.43;;;2.00;;
65018;SDS011;66069;51.164;-114.452;2023-04-03T06:14:20;5.72;;;1.67;;
65018;SDS011;66069;51.164;-114.452;2023-04-03T06:16:46;5.35;;;1.80;;
65018;SDS011;66069;51.164;-114.452;2023-04-03T06:19:12;5.10;;;1.90;;
65018;SDS011;66069;51.164;-114.452;2023-04-03T06:21:38;5.40;;;2.08;;
65018;SDS011;66069;51.164;-114.452;2023-04-03T06:24:04;5.00;;;1.92;;
65018;SDS011;66069;51.164;-114.452;2023-04-03T06:26:31;4.65;;;1.60;;
65018;SDS011;66069;51.164;-114.452;2023-04-03T06:28:57;5.03;;;1.70;;
65018;SDS011;66069;51.164;-114.452;2023-04-03T06:31:23;6.88;;;2.17;;
65018;SDS011;66069;51.164;-114.452;2023-04-03T06:33:49;4.50;;;1.70;;
65018;SDS011;66069;51.164;-114.452;2023-04-03T06:36:15;4.20;;;1.80;;
65018;SDS011;66069;51.164;-114.452;2023-04-03T06:38:45;4.90;;;1.67;;
65018;SDS011;66069;51.164;-114.452;2023-04-03T06:41:11;4.90;;;1.90;;
65018;SDS011;66069;51.164;-114.452;2023-04-03T06:43:37;3.72;;;1.58;;
65018;SDS011;66069;51.164;-114.452;2023-04-03T06:46:03;5.82;;;2.05;;
65018;SDS011;66069;51.164;-114.452;2023-04-03T06:48:29;4.68;;;1.63;;
65018;SDS011;66069;51.164;-114.452;2023-04-03T06:50:54;5.35;;;2.40;;
65018;SDS011;66069;51.164;-114.452;2023-04-03T06:53:20;3.65;;;1.58;;
65018;SDS011;66069;51.164;-114.452;2023-04-03T06:55:46;6.78;;;2.25;;
65018;SDS011;66069;51.164;-114.452;2023-04-03T06:58:12;3.97;;;1.42;;
65018;SDS011;66069;51.164;-114.452;2023-04-03T07:00:40;4.07;;;1.67;;
65018;SDS011;66069;51.164;-114.452;2023-04-03T07:03:06;4.65;;;1.83;;
65018;SDS011;66069;51.164;-114.452;2023-04-03T07:05:32;4.40;;;2.03;;
65018;SDS011;66069;51.164;-114.452;2023-04-03T07:07:58;6.43;;;2.03;;
65018;SDS011;66069;51.164;-114.452;2023-04-03T07:10:24;5.10;;;1.85;;
65018;SDS011;66069;51.164;-114.452;2023-04-03T07:12:50;3.80;;;1.73;;
65018;SDS011;66069;51.164;-114.452;2023-04-03T07:15:17;4.50;;;2.15;;
65018;SDS011;66069;51.164;-114.452;2023-04-03T07:17:43;3.75;;;1.75;;
65018;SDS011;66069;51.164;-114.452;2023-04-03T07:20:09;3.33;;;1.55;;
65018;SDS011;66069;51.164;-114.452;2023-04-03T07:22:36;5.18;;;2.00;;
65018;SDS011;66069;51.164;-114.452;2023-04-03T07:25:02;5.07;;;1.70;;
65018;SDS011;66069;51.164;-114.452;2023-04-03T07:27:28;2.97;;;1.58;;
65018;SDS011;66069;51.164;-114.452;2023-04-03T07:29:54;3.72;;;1.58;;
65018;SDS011;66069;51.164;-114.452;2023-04-03T07:32:21;4.38;;;1.52;;
65018;SDS011;66069;51.164;-114.452;2023-04-03T07:34:47;3.92;;;1.60;;
65018;SDS011;66069;51.164;-114.452;2023-04-03T07:37:13;4.60;;;1.63;;
65018;SDS011;66069;51.164;-114.452;2023-04-03T07:39:42;4.35;;;1.58;;
65018;SDS011;66069;51.164;-114.452;2023-04-03T07:42:09;4.25;;;1.50;;
65018;SDS011;66069;51.164;-114.452;2023-04-03T07:44:35;4.47;;;1.70;;
65018;SDS011;66069;51.164;-114.452;2023-04-03T07:47:01;5.10;;;1.85;;
65018;SDS011;66069;51.164;-114.452;2023-04-03T07:49:27;5.20;;;1.65;;
65018;SDS011;66069;51.164;-114.452;2023-04-03T07:51:53;4.57;;;1.40;;
65018;SDS011;66069;51.164;-114.452;2023-04-03T07:54:20;3.30;;;1.50;;
65018;SDS011;66069;51.164;-114.452;2023-04-03T07:56:46;3.65;;;1.35;;
65018;SDS011;66069;51.164;-114.452;2023-04-03T07:59:12;3.88;;;1.60;;
65018;SDS011;66069;51.164;-114.452;2023-04-03T08:01:38;4.40;;;1.30;;
65018;SDS011;66069;51.164;-114.452;2023-04-03T08:04:04;2.97;;;1.20;;
65018;SDS011;66069;51.164;-114.452;2023-04-03T08:06:30;2.97;;;1.10;;
65018;SDS011;66069;51.164;-114.452;2023-04-03T08:08:59;3.70;;;1.83;;
65018;SDS011;66069;51.164;-114.452;2023-04-03T08:11:24;3.28;;;1.50;;
65018;SDS011;66069;51.164;-114.452;2023-04-03T08:13:51;5.38;;;1.95;;
65018;SDS011;66069;51.164;-114.452;2023-04-03T08:16:18;3.55;;;1.20;;
65018;SDS011;66069;51.164;-114.452;2023-04-03T08:18:45;3.40;;;1.30;;
65018;SDS011;66069;51.164;-114.452;2023-04-03T08:21:11;3.72;;;1.45;;
65018;SDS011;66069;51.164;-114.452;2023-04-03T08:23:38;3.13;;;1.20;;
65018;SDS011;66069;51.164;-114.452;2023-04-03T08:26:12;3.65;;;1.13;;
65018;SDS011;66069;51.164;-114.452;2023-04-03T08:28:38;2.90;;;1.38;;
65018;SDS011;66069;51.164;-114.452;2023-04-03T08:31:08;4.80;;;1.48;;
65018;SDS011;66069;51.164;-114.452;2023-04-03T08:33:36;2.78;;;1.38;;
65018;SDS011;66069;51.164;-114.452;2023-04-03T08:36:07;3.65;;;1.50;;
65018;SDS011;66069;51.164;-114.452;2023-04-03T08:38:33;3.88;;;1.50;;
65018;SDS011;66069;51.164;-114.452;2023-04-03T08:41:10;3.40;;;1.30;;
65018;SDS011;66069;51.164;-114.452;2023-04-03T08:44:01;3.28;;;1.20;;
65018;SDS011;66069;51.164;-114.452;2023-04-03T08:46:26;2.95;;;1.50;;
65018;SDS011;66069;51.164;-114.452;2023-04-03T08:48:59;3.17;;;1.35;;
65018;SDS011;66069;51.164;-114.452;2023-04-03T08:51:25;3.03;;;1.25;;
65018;SDS011;66069;51.164;-114.452;2023-04-03T08:54:02;3.10;;;1.45;;
65018;SDS011;66069;51.164;-114.452;2023-04-03T08:56:30;3.65;;;1.23;;
65018;SDS011;66069;51.164;-114.452;2023-04-03T08:58:58;3.10;;;1.10;;
65018;SDS011;66069;51.164;-114.452;2023-04-03T09:01:30;3.30;;;1.38;;
65018;SDS011;66069;51.164;-114.452;2023-04-03T09:04:00;2.78;;;1.38;;
65018;SDS011;66069;51.164;-114.452;2023-04-03T09:06:26;3.60;;;1.27;;
65018;SDS011;66069;51.164;-114.452;2023-04-03T09:11:57;2.22;;;1.17;;
65018;SDS011;66069;51.164;-114.452;2023-04-03T09:14:41;2.50;;;1.17;;
65018;SDS011;66069;51.164;-114.452;2023-04-03T09:19:49;3.15;;;1.30;;
65018;SDS011;66069;51.164;-114.452;2023-04-03T09:24:45;3.40;;;1.40;;
65018;SDS011;66069;51.164;-114.452;2023-04-03T09:27:12;3.70;;;1.25;;
65018;SDS011;66069;51.164;-114.452;2023-04-03T09:29:39;2.60;;;1.23;;
65018;SDS011;66069;51.164;-114.452;2023-04-03T09:32:25;3.42;;;1.50;;
65018;SDS011;66069;51.164;-114.452;2023-04-03T09:34:51;3.83;;;0.93;;
65018;SDS011;66069;51.164;-114.452;2023-04-03T09:37:39;3.13;;;1.30;;
65018;SDS011;66069;51.164;-114.452;2023-04-03T09:40:06;3.83;;;1.42;;
65018;SDS011;66069;51.164;-114.452;2023-04-03T09:42:52;3.05;;;1.10;;
65018;SDS011;66069;51.164;-114.452;2023-04-03T09:45:23;2.20;;;1.05;;
65018;SDS011;66069;51.164;-114.452;2023-04-03T09:47:50;2.53;;;1.23;;
65018;SDS011;66069;51.164;-114.452;2023-04-03T09:50:29;2.50;;;1.20;;
65018;SDS011;66069;51.164;-114.452;2023-04-03T09:52:55;3.15;;;1.10;;
65018;SDS011;66069;51.164;-114.452;2023-04-03T09:55:22;3.00;;;1.00;;
65018;SDS011;66069;51.164;-114.452;2023-04-03T09:57:52;3.20;;;1.20;;
65018;SDS011;66069;51.164;-114.452;2023-04-03T10:00:23;3.92;;;1.10;;
65018;SDS011;66069;51.164;-114.452;2023-04-03T10:07:52;2.10;;;1.05;;
65018;SDS011;66069;51.164;-114.452;2023-04-03T10:10:32;2.20;;;1.00;;
65018;SDS011;66069;51.164;-114.452;2023-04-03T10:13:31;2.63;;;1.00;;
65018;SDS011;66069;51.164;-114.452;2023-04-03T10:20:49;3.33;;;1.17;;
65018;SDS011;66069;51.164;-114.452;2023-04-03T10:23:19;3.05;;;1.10;;
65018;SDS011;66069;51.164;-114.452;2023-04-03T10:31:04;2.75;;;1.05;;
65018;SDS011;66069;51.164;-114.452;2023-04-03T10:33:43;2.03;;;1.05;;
65018;SDS011;66069;51.164;-114.452;2023-04-03T10:36:33;2.67;;;1.00;;
65018;SDS011;66069;51.164;-114.452;2023-04-03T10:39:23;2.03;;;0.98;;
65018;SDS011;66069;51.164;-114.452;2023-04-03T10:47:22;3.30;;;1.08;;
65018;SDS011;66069;51.164;-114.452;2023-04-03T10:49:55;2.65;;;1.00;;
65018;SDS011;66069;51.164;-114.452;2023-04-03T10:52:29;2.78;;;1.25;;
65018;SDS011;66069;51.164;-114.452;2023-04-03T10:57:29;2.92;;;0.90;;
65018;SDS011;66069;51.164;-114.452;2023-04-03T11:00:06;2.97;;;0.85;;
65018;SDS011;66069;51.164;-114.452;2023-04-03T11:02:40;2.25;;;1.05;;
65018;SDS011;66069;51.164;-114.452;2023-04-03T11:05:15;3.00;;;1.00;;
65018;SDS011;66069;51.164;-114.452;2023-04-03T11:07:45;1.25;;;0.70;;
65018;SDS011;66069;51.164;-114.452;2023-04-03T11:12:46;2.13;;;0.98;;
65018;SDS011;66069;51.164;-114.452;2023-04-03T11:15:15;2.38;;;0.88;;
65018;SDS011;66069;51.164;-114.452;2023-04-03T11:17:48;1.75;;;0.80;;
65018;SDS011;66069;51.164;-114.452;2023-04-03T11:22:57;2.00;;;0.90;;
65018;SDS011;66069;51.164;-114.452;2023-04-03T11:25:24;2.03;;;0.77;;
65018;SDS011;66069;51.164;-114.452;2023-04-03T11:27:54;3.17;;;0.85;;
65018;SDS011;66069;51.164;-114.452;2023-04-03T11:35:14;1.73;;;0.80;;
65018;SDS011;66069;51.164;-114.452;2023-04-03T11:37:49;2.95;;;1.10;;
65018;SDS011;66069;51.164;-114.452;2023-04-03T11:52:57;2.45;;;1.00;;
65018;SDS011;66069;51.164;-114.452;2023-04-03T12:16:02;2.13;;;0.85;;
65018;SDS011;66069;51.164;-114.452;2023-04-03T12:20:58;2.42;;;1.00;;
65018;SDS011;66069;51.164;-114.452;2023-04-03T12:23:28;1.48;;;0.73;;
65018;SDS011;66069;51.164;-114.452;2023-04-03T12:25:59;2.45;;;0.90;;
65018;SDS011;66069;51.164;-114.452;2023-04-03T12:28:25;1.77;;;0.90;;
65018;SDS011;66069;51.164;-114.452;2023-04-03T12:30:52;1.48;;;0.70;;
65018;SDS011;66069;51.164;-114.452;2023-04-03T12:40:43;3.85;;;0.93;;
65018;SDS011;66069;51.164;-114.452;2023-04-03T12:48:22;2.75;;;0.82;;
65018;SDS011;66069;51.164;-114.452;2023-04-03T12:50:51;1.95;;;0.80;;
65018;SDS011;66069;51.164;-114.452;2023-04-03T12:53:27;1.52;;;0.70;;
65018;SDS011;66069;51.164;-114.452;2023-04-03T12:56:17;1.52;;;0.50;;
65018;SDS011;66069;51.164;-114.452;2023-04-03T12:58:44;1.50;;;0.50;;
65018;SDS011;66069;51.164;-114.452;2023-04-03T13:01:11;1.08;;;0.47;;
65018;SDS011;66069;51.164;-114.452;2023-04-03T13:03:38;1.85;;;0.60;;
65018;SDS011;66069;51.164;-114.452;2023-04-03T13:06:04;0.73;;;0.30;;
65018;SDS011;66069;51.164;-114.452;2023-04-03T13:08:31;1.52;;;0.75;;
65018;SDS011;66069;51.164;-114.452;2023-04-03T13:11:07;0.93;;;0.50;;
65018;SDS011;66069;51.164;-114.452;2023-04-03T13:13:35;0.63;;;0.40;;
65018;SDS011;66069;51.164;-114.452;2023-04-03T13:16:10;1.42;;;0.52;;
65018;SDS011;66069;51.164;-114.452;2023-04-03T13:18:37;0.82;;;0.50;;
65018;SDS011;66069;51.164;-114.452;2023-04-03T13:21:07;1.35;;;0.60;;
65018;SDS011;66069;51.164;-114.452;2023-04-03T13:23:38;1.25;;;0.50;;
65018;SDS011;66069;51.164;-114.452;2023-04-03T13:26:05;0.63;;;0.30;;
65018;SDS011;66069;51.164;-114.452;2023-04-03T13:28:31;1.35;;;0.47;;
65018;SDS011;66069;51.164;-114.452;2023-04-03T13:33:35;0.88;;;0.30;;
65018;SDS011;66069;51.164;-114.452;2023-04-03T13:36:06;0.95;;;0.50;;
65018;SDS011;66069;51.164;-114.452;2023-04-03T13:38:33;0.68;;;0.30;;
65018;SDS011;66069;51.164;-114.452;2023-04-03T13:41:03;1.00;;;0.47;;
65018;SDS011;66069;51.164;-114.452;2023-04-03T13:43:36;1.10;;;0.40;;
65018;SDS011;66069;51.164;-114.452;2023-04-03T13:46:20;1.00;;;0.40;;
65018;SDS011;66069;51.164;-114.452;2023-04-03T13:48:48;0.82;;;0.32;;
65018;SDS011;66069;51.164;-114.452;2023-04-03T13:51:17;0.45;;;0.30;;
65018;SDS011;66069;51.164;-114.452;2023-04-03T13:56:27;0.98;;;0.30;;
65018;SDS011;66069;51.164;-114.452;2023-04-03T13:58:59;1.75;;;0.32;;
65018;SDS011;66069;51.164;-114.452;2023-04-03T14:01:26;0.68;;;0.40;;
65018;SDS011;66069;51.164;-114.452;2023-04-03T14:03:59;0.40;;;0.30;;
65018;SDS011;66069;51.164;-114.452;2023-04-03T14:06:25;0.68;;;0.35;;
65018;SDS011;66069;51.164;-114.452;2023-04-03T14:08:51;1.10;;;0.38;;
65018;SDS011;66069;51.164;-114.452;2023-04-03T14:11:18;0.77;;;0.30;;
65018;SDS011;66069;51.164;-114.452;2023-04-03T14:13:46;0.28;;;0.20;;
65018;SDS011;66069;51.164;-114.452;2023-04-03T14:16:16;0.57;;;0.35;;
65018;SDS011;66069;51.164;-114.452;2023-04-03T14:18:44;0.40;;;0.22;;
65018;SDS011;66069;51.164;-114.452;2023-04-03T14:21:13;0.55;;;0.30;;
65018;SDS011;66069;51.164;-114.452;2023-04-03T14:23:40;0.60;;;0.45;;
65018;SDS011;66069;51.164;-114.452;2023-04-03T14:26:16;0.22;;;0.20;;
65018;SDS011;66069;51.164;-114.452;2023-04-03T14:28:43;0.22;;;0.20;;
65018;SDS011;66069;51.164;-114.452;2023-04-03T14:31:10;1.42;;;0.38;;
65018;SDS011;66069;51.164;-114.452;2023-04-03T14:33:36;0.40;;;0.28;;
65018;SDS011;66069;51.164;-114.452;2023-04-03T14:36:15;0.47;;;0.38;;
65018;SDS011;66069;51.164;-114.452;2023-04-03T14:38:42;0.30;;;0.30;;
65018;SDS011;66069;51.164;-114.452;2023-04-03T14:41:10;1.70;;;0.40;;
65018;SDS011;66069;51.164;-114.452;2023-04-03T14:43:37;4.18;;;0.77;;
65018;SDS011;66069;51.164;-114.452;2023-04-03T14:46:04;8.70;;;1.52;;
65018;SDS011;66069;51.164;-114.452;2023-04-03T14:48:30;16.23;;;2.47;;
65018;SDS011;66069;51.164;-114.452;2023-04-03T14:50:56;20.38;;;2.88;;
65018;SDS011;66069;51.164;-114.452;2023-04-03T14:53:23;20.88;;;3.17;;
65018;SDS011;66069;51.164;-114.452;2023-04-03T14:55:50;22.08;;;2.83;;
65018;SDS011;66069;51.164;-114.452;2023-04-03T14:58:17;25.50;;;3.45;;
65018;SDS011;66069;51.164;-114.452;2023-04-03T15:00:43;25.48;;;3.80;;
65018;SDS011;66069;51.164;-114.452;2023-04-03T15:03:27;28.17;;;5.03;;
65018;SDS011;66069;51.164;-114.452;2023-04-03T15:05:53;24.10;;;4.28;;
65018;SDS011;66069;51.164;-114.452;2023-04-03T15:08:21;34.60;;;4.95;;
65018;SDS011;66069;51.164;-114.452;2023-04-03T15:10:47;21.55;;;3.63;;
65018;SDS011;66069;51.164;-114.452;2023-04-03T15:13:13;20.75;;;4.07;;
65018;SDS011;66069;51.164;-114.452;2023-04-03T15:15:39;18.33;;;3.60;;
65018;SDS011;66069;51.164;-114.452;2023-04-03T15:18:05;24.23;;;4.15;;
65018;SDS011;66069;51.164;-114.452;2023-04-03T15:20:31;18.25;;;3.28;;
65018;SDS011;66069;51.164;-114.452;2023-04-03T15:22:59;13.13;;;3.00;;
65018;SDS011;66069;51.164;-114.452;2023-04-03T15:25:28;12.50;;;2.63;;
65018;SDS011;66069;51.164;-114.452;2023-04-03T15:27:54;14.32;;;2.85;;
65018;SDS011;66069;51.164;-114.452;2023-04-03T15:30:23;16.23;;;3.13;;
65018;SDS011;66069;51.164;-114.452;2023-04-03T15:32:49;13.77;;;4.50;;
65018;SDS011;66069;51.164;-114.452;2023-04-03T15:35:16;12.77;;;2.00;;
65018;SDS011;66069;51.164;-114.452;2023-04-03T15:37:42;12.20;;;2.35;;
65018;SDS011;66069;51.164;-114.452;2023-04-03T15:40:08;9.43;;;2.13;;
65018;SDS011;66069;51.164;-114.452;2023-04-03T15:42:34;13.05;;;2.03;;
65018;SDS011;66069;51.164;-114.452;2023-04-03T15:45:00;16.52;;;2.30;;
65018;SDS011;66069;51.164;-114.452;2023-04-03T15:47:26;16.23;;;1.98;;
65018;SDS011;66069;51.164;-114.452;2023-04-03T15:49:53;8.63;;;2.30;;
65018;SDS011;66069;51.164;-114.452;2023-04-03T15:52:20;9.15;;;2.63;;
65018;SDS011;66069;51.164;-114.452;2023-04-03T15:54:46;10.93;;;1.95;;
65018;SDS011;66069;51.164;-114.452;2023-04-03T15:57:11;10.63;;;2.10;;